Main page
Satellite images 15-day forecastsClimateMarine weather Cyclones Lightning AirportsFAQ Newsletter About
Weather : Europe Africa North America South America Asia Australia-Oceania Others
Languages Contact

Frankfurt, Germany

latitude: 50-03N, longitude: 008-36E, elevation: 111 m


METAR: EDDF 021350Z 02010KT 9999 FEW024 BKN043 18/13 Q1021 NOSIG
short-TAF: out of date (51061 hours)
long-TAF: EDDF 021100Z 0212/0318 01004KT 9999 SCT045 BECMG 0303/0305 04009KT

Time: 15:55 (13:55 UTC)

Current weather observation

The report was made 5 minutes ago, at 13:50 UTC  
Wind 10 kt from the North/Northeast
Temperature 18°C
Humidity 73%
Pressure 1021 hPa
Visibility 10 km or more
Few clouds at a height of 2400 ft
Broken clouds at a height of 4300 ft

Change units

Forecast

The report was made 2 hours and 28 minutes ago, at 11:27 UTC  
Forecast valid from 02 at 12 UTC to 03 at 18 UTC
Wind 04 kt from the North
Visibility 10 km or more
Scattered clouds at a height of 4500 ft
Becoming
from 03 at 03 UTC to 03 at 05 UTC
Wind 09 kt from the Northeast
The information on this site is subject to a disclaimer
Weather : Europe Africa North America South America Asia Australia-Oceania Others
Satellite images 15-day forecastsClimateMarine weather Cyclones Lightning AirportsFAQ Languages Contact Newsletter About